Time;durP1;ratioP1;P1;durP2;ratioP2;P2;SDS_P1;SDS_P2;PMS_P1;PMS_P2;Temp;Humidity;BMP_temperature;BMP_pressure;BME280_temperature;BME280_humidity;BME280_pressure;Samples;Min_cycle;Max_cycle;Signal;HPM_P1;HPM_P2
2023/08/27 00:01:50;;;;;;;14.77;10.05;;;15.70;99.90;;;15.53;100.00;96789.19;5029628;28;20029;-39
2023/08/27 00:04:16;;;;;;;15.73;9.98;;;15.70;99.90;;;15.54;100.00;96774.94;5023330;28;20745;-40
2023/08/27 00:06:42;;;;;;;11.95;8.52;;;15.80;99.90;;;15.55;100.00;96761.53;5026371;28;20025;-40
2023/08/27 00:09:07;;;;;;;12.27;8.65;;;15.80;99.90;;;15.56;100.00;96735.81;5046553;22;20072;-37
2023/08/27 00:11:33;;;;;;;10.63;8.38;;;15.80;99.90;;;15.60;100.00;96726.69;5026495;28;20073;-37
2023/08/27 00:13:59;;;;;;;16.92;10.32;;;15.80;99.90;;;15.60;100.00;96716.91;5014696;28;20417;-38
2023/08/27 00:16:24;;;;;;;17.23;10.60;;;15.80;99.90;;;15.55;100.00;96692.44;5007682;28;20079;-37
2023/08/27 00:18:50;;;;;;;14.60;9.65;;;15.80;99.90;;;15.55;100.00;96697.78;5004632;28;21003;-37
2023/08/27 00:21:16;;;;;;;17.98;13.00;;;15.80;99.90;;;15.45;100.00;96704.66;5009849;28;20030;-37
2023/08/27 00:23:41;;;;;;;17.77;12.20;;;15.70;99.90;;;15.42;100.00;96703.06;5009526;28;20030;-37
2023/08/27 00:26:07;;;;;;;18.52;12.27;;;15.70;99.90;;;15.32;100.00;96709.94;5013518;28;20460;-37
2023/08/27 00:28:33;;;;;;;14.48;10.00;;;15.60;99.90;;;15.35;100.00;96728.34;5012493;28;20104;-37
2023/08/27 00:31:03;;;;;;;12.73;9.32;;;15.60;99.90;;;15.35;100.00;96738.97;5011598;28;20836;-37
2023/08/27 00:33:29;;;;;;;13.30;9.55;;;15.60;99.90;;;15.34;100.00;96745.22;5011875;28;20029;-37
2023/08/27 00:35:55;;;;;;;12.48;9.35;;;15.60;99.90;;;15.35;100.00;96756.72;5017555;28;20040;-36
2023/08/27 00:38:20;;;;;;;18.23;10.65;;;15.60;99.90;;;15.39;100.00;96767.03;5009312;28;20050;-37
2023/08/27 00:40:46;;;;;;;18.60;12.70;;;15.60;99.90;;;15.43;100.00;96773.00;5015138;28;20042;-37
2023/08/27 00:43:12;;;;;;;15.50;12.25;;;15.70;99.90;;;15.43;100.00;96767.69;5014747;28;20030;-37
2023/08/27 00:45:39;;;;;;;14.13;11.32;;;15.70;99.90;;;15.43;100.00;96763.25;5012318;28;20036;-37
2023/08/27 00:48:05;;;;;;;15.45;9.90;;;15.70;99.90;;;15.50;100.00;96776.94;5013869;28;20022;-36
2023/08/27 00:50:31;;;;;;;12.48;9.63;;;15.70;99.90;;;15.45;100.00;96768.41;5004245;28;20045;-36
2023/08/27 00:52:58;;;;;;;11.80;9.45;;;15.80;99.90;;;15.57;100.00;96796.84;5019039;28;20482;-37
2023/08/27 00:55:23;;;;;;;14.35;10.48;;;15.80;99.90;;;15.49;100.00;96777.03;5018355;28;20025;-37
2023/08/27 00:57:50;;;;;;;10.38;8.85;;;15.80;99.90;;;15.60;100.00;96803.78;5019433;28;20079;-37
2023/08/27 01:00:18;;;;;;;11.68;8.73;;;15.90;99.90;;;15.62;100.00;96804.53;5018396;28;20553;-36
2023/08/27 01:02:44;;;;;;;10.55;8.10;;;15.90;99.90;;;15.63;100.00;96795.56;5012357;28;20076;-36
2023/08/27 01:05:12;;;;;;;10.73;8.73;;;15.90;99.90;;;15.64;100.00;96794.63;5016765;28;20026;-37
2023/08/27 01:07:58;;;;;;;9.60;7.85;;;15.90;99.90;;;15.65;100.00;96793.69;5015651;28;20037;-37
2023/08/27 01:11:08;;;;;;;9.43;7.10;;;15.90;99.90;;;15.68;100.00;96792.63;5028521;28;20305;-36
2023/08/27 01:13:48;;;;;;;9.65;7.25;;;15.90;99.90;;;15.69;100.00;96779.22;5013189;28;20256;-36
2023/08/27 01:16:18;;;;;;;9.80;7.60;;;15.90;99.90;;;15.66;100.00;96763.47;5011952;28;20025;-37
2023/08/27 01:18:44;;;;;;;6.30;5.70;;;16.00;99.90;;;15.76;100.00;96766.41;5030408;28;20068;-37
2023/08/27 01:21:23;;;;;;;8.32;7.25;;;16.00;99.90;;;15.69;100.00;96739.38;5015102;28;20068;-37
2023/08/27 01:23:49;;;;;;;10.70;9.02;;;16.00;99.90;;;15.77;100.00;96749.50;5013891;28;20404;-37
2023/08/27 01:26:34;;;;;;;8.20;7.25;;;16.10;99.90;;;15.83;100.00;96741.13;5019281;28;20025;-36
2023/08/27 01:29:15;;;;;;;9.20;7.30;;;16.10;99.90;;;15.87;100.00;96739.94;5011413;28;20237;-37
2023/08/27 01:31:59;;;;;;;9.50;7.63;;;16.10;99.90;;;15.89;100.00;96735.38;5013390;28;20487;-37
2023/08/27 01:34:25;;;;;;;10.63;7.72;;;16.10;99.90;;;15.93;100.00;96741.31;5013921;28;20041;-37
2023/08/27 01:36:52;;;;;;;11.80;8.90;;;16.20;99.90;;;15.96;100.00;96749.94;5016176;28;20319;-36
2023/08/27 01:39:17;;;;;;;12.63;8.20;;;16.20;99.90;;;16.00;100.00;96750.56;5018057;28;20417;-36
2023/08/27 01:41:45;;;;;;;16.98;11.00;;;16.20;99.90;;;15.87;100.00;96739.94;5010290;28;20021;-37
2023/08/27 01:44:11;;;;;;;12.15;8.60;;;16.20;99.90;;;15.98;100.00;96755.16;5014455;28;20041;-37
2023/08/27 01:46:37;;;;;;;9.40;7.22;;;16.20;99.90;;;16.01;100.00;96752.28;5012802;28;20446;-36
2023/08/27 01:49:03;;;;;;;9.45;6.93;;;16.20;99.90;;;16.02;100.00;96753.97;5018753;28;20033;-37
2023/08/27 01:51:29;;;;;;;9.27;7.97;;;16.30;99.90;;;15.97;100.00;96734.81;5012114;28;20336;-37
2023/08/27 01:53:54;;;;;;;10.48;8.63;;;16.20;99.90;;;16.05;100.00;96731.66;5015183;28;20025;-37
2023/08/27 01:56:20;;;;;;;15.38;9.75;;;16.30;99.90;;;16.09;100.00;96723.34;5012562;28;20041;-37
2023/08/27 01:58:46;;;;;;;14.80;10.10;;;16.30;99.90;;;15.99;100.00;96716.97;5012337;28;20032;-36
2023/08/27 02:01:12;;;;;;;12.05;8.70;;;16.30;99.90;;;15.99;100.00;96723.16;5015362;28;20489;-37
2023/08/27 02:03:37;;;;;;;11.35;8.27;;;16.20;99.90;;;15.96;100.00;96731.31;5015822;28;20474;-36
2023/08/27 02:06:03;;;;;;;10.25;8.93;;;16.20;99.90;;;15.96;100.00;96733.13;5018145;28;20057;-37
2023/08/27 02:08:29;;;;;;;14.65;10.32;;;16.20;99.90;;;15.82;100.00;96732.25;5014092;28;20426;-37
2023/08/27 02:10:54;;;;;;;9.82;8.20;;;16.20;99.90;;;15.83;100.00;96733.97;5017307;28;20041;-37
2023/08/27 02:13:20;;;;;;;9.32;7.80;;;16.10;99.90;;;15.86;100.00;96724.94;5002848;28;20038;-36
2023/08/27 02:15:46;;;;;;;10.52;7.68;;;16.10;99.90;;;15.83;100.00;96727.81;4995573;28;20083;-38
2023/08/27 02:18:11;;;;;;;11.23;7.45;;;16.10;99.90;;;15.84;100.00;96732.16;5003555;28;20046;-39
2023/08/27 02:20:37;;;;;;;8.55;6.95;;;16.10;99.90;;;15.80;100.00;96720.91;5000794;28;20156;-37
2023/08/27 02:23:03;;;;;;;11.18;7.22;;;16.10;99.90;;;15.80;100.00;96712.06;5005069;28;20041;-37
2023/08/27 02:25:29;;;;;;;11.93;6.47;;;16.10;99.90;;;15.79;100.00;96715.69;5006353;28;20038;-37
2023/08/27 02:27:55;;;;;;;8.05;7.07;;;16.00;99.90;;;15.72;100.00;96714.38;5007153;28;20106;-37
2023/08/27 02:30:20;;;;;;;8.95;6.88;;;16.00;99.90;;;15.77;100.00;96738.88;5009524;28;20037;-37
2023/08/27 02:32:46;;;;;;;7.80;6.28;;;16.00;99.90;;;15.77;100.00;96741.53;5011917;28;20036;-37
2023/08/27 02:35:12;;;;;;;9.35;7.53;;;16.00;99.90;;;15.78;100.00;96751.22;5007523;28;20026;-36
2023/08/27 02:37:37;;;;;;;8.80;6.85;;;16.00;99.90;;;15.78;100.00;96751.22;4998738;28;20061;-36
2023/08/27 02:40:04;;;;;;;10.55;7.25;;;16.00;99.90;;;15.79;100.00;96752.91;4999059;28;20533;-36
2023/08/27 02:42:29;;;;;;;11.10;8.13;;;16.00;99.90;;;15.80;100.00;96736.84;5011363;28;20033;-36
2023/08/27 02:44:55;;;;;;;14.70;8.20;;;16.00;99.90;;;15.77;100.00;96730.88;5006839;28;20037;-36
2023/08/27 02:47:21;;;;;;;12.32;9.57;;;16.00;99.90;;;15.78;100.00;96738.75;5009319;28;20111;-37
2023/08/27 02:49:47;;;;;;;10.63;8.10;;;16.00;99.90;;;15.80;100.00;96742.16;5009852;28;20064;-37
2023/08/27 02:52:12;;;;;;;10.65;7.65;;;16.10;99.90;;;15.81;100.00;96741.22;5004861;28;20037;-36
2023/08/27 02:54:38;;;;;;;10.43;7.55;;;16.00;99.90;;;15.77;100.00;96723.78;5002391;28;20037;-37
2023/08/27 02:57:04;;;;;;;13.43;8.30;;;16.00;99.90;;;15.82;100.00;96737.59;5006322;28;20812;-37
2023/08/27 02:59:30;;;;;;;9.68;7.55;;;16.10;99.90;;;15.84;100.00;96734.81;5009871;28;20065;-37
2023/08/27 03:01:56;;;;;;;9.25;7.07;;;16.00;99.90;;;15.86;100.00;96732.06;5001246;28;20038;-37
2023/08/27 03:04:21;;;;;;;9.98;8.00;;;16.10;99.90;;;15.86;100.00;96722.28;5002050;28;20622;-37
2023/08/27 03:06:47;;;;;;;9.15;7.57;;;16.10;99.90;;;15.91;100.00;96737.91;5007119;28;20039;-36
2023/08/27 03:09:13;;;;;;;12.18;7.57;;;16.10;99.90;;;15.93;100.00;96742.16;4965611;28;1208737;-37
2023/08/27 03:11:38;;;;;;;10.65;7.22;;;16.10;99.90;;;15.95;100.00;96740.28;5002957;28;20117;-38
2023/08/27 03:14:04;;;;;;;10.13;7.82;;;16.20;99.90;;;15.95;100.00;96737.63;5001415;28;20029;-38
2023/08/27 03:16:30;;;;;;;10.38;7.43;;;16.20;99.90;;;15.97;100.00;96725.06;4997939;28;20140;-37
2023/08/27 03:18:55;;;;;;;10.25;7.75;;;16.20;99.90;;;15.94;100.00;96704.00;4999312;28;20037;-38
2023/08/27 03:21:21;;;;;;;10.82;8.48;;;16.20;99.90;;;15.97;100.00;96711.75;4998048;28;20119;-36
2023/08/27 03:23:47;;;;;;;10.95;8.85;;;16.20;99.90;;;15.96;100.00;96710.06;4999027;28;20159;-36
2023/08/27 03:26:13;;;;;;;11.40;7.20;;;16.20;99.90;;;15.97;100.00;96705.56;5006454;28;20029;-36
2023/08/27 03:28:39;;;;;;;11.23;7.43;;;16.20;99.90;;;15.96;100.00;96703.91;5004418;28;20030;-36
2023/08/27 03:31:04;;;;;;;10.75;7.38;;;16.20;99.90;;;15.95;100.00;96687.09;5006637;28;20693;-38
2023/08/27 03:33:31;;;;;;;10.65;7.55;;;16.20;99.90;;;15.98;100.00;96688.66;5006739;28;20033;-36
2023/08/27 03:36:00;;;;;;;9.38;6.75;;;16.20;99.90;;;15.98;100.00;96691.34;5008689;28;20025;-36
2023/08/27 03:38:25;;;;;;;16.73;9.50;;;16.20;99.90;;;15.94;100.00;96695.19;5007945;28;20034;-38
2023/08/27 03:40:52;;;;;;;13.13;9.63;;;16.20;99.90;;;15.89;100.00;96689.31;5008114;28;20087;-36
2023/08/27 03:43:18;;;;;;;14.00;8.90;;;16.20;99.90;;;15.88;100.00;96690.25;5006871;28;20033;-36
2023/08/27 03:45:44;;;;;;;11.13;7.47;;;16.20;99.90;;;15.88;100.00;96685.81;5009508;28;21274;-36
2023/08/27 03:48:10;;;;;;;9.85;7.57;;;16.10;99.90;;;15.90;100.00;96688.34;5005492;28;20065;-36
2023/08/27 03:50:36;;;;;;;8.32;6.97;;;16.10;99.90;;;15.90;100.00;96686.56;5002122;28;20069;-36
2023/08/27 03:53:05;;;;;;;8.13;6.88;;;16.20;99.90;;;15.88;100.00;96683.16;5012232;28;20474;-38
2023/08/27 03:55:39;;;;;;;8.50;6.70;;;16.20;99.90;;;15.88;100.00;96690.25;5009399;28;20044;-36
2023/08/27 03:58:06;;;;;;;10.55;6.90;;;16.10;99.90;;;15.87;100.00;96692.09;5006269;28;20601;-36
2023/08/27 04:00:33;;;;;;;8.70;6.97;;;16.10;99.90;;;15.83;100.00;96686.13;5003288;28;20029;-36
2023/08/27 04:02:59;;;;;;;10.75;7.25;;;16.10;99.90;;;15.83;100.00;96672.84;5004416;28;21211;-36
2023/08/27 04:05:25;;;;;;;8.45;7.10;;;16.10;99.90;;;15.82;100.00;96673.78;5007218;28;20203;-37
2023/08/27 04:07:51;;;;;;;9.18;6.57;;;16.10;99.90;;;15.82;100.00;96663.16;5009592;28;20040;-36
2023/08/27 04:10:17;;;;;;;11.05;6.70;;;16.10;99.90;;;15.83;100.00;96662.19;5009291;28;20477;-36
2023/08/27 04:12:42;;;;;;;9.23;6.25;;;16.10;99.90;;;15.82;100.00;96664.97;5008181;28;20040;-36
2023/08/27 04:15:09;;;;;;;10.05;6.55;;;16.00;99.90;;;15.82;100.00;96676.44;5007746;28;20056;-36
2023/08/27 04:17:35;;;;;;;7.32;5.95;;;16.10;99.90;;;15.84;100.00;96690.50;5005685;28;20033;-37
2023/08/27 04:20:01;;;;;;;7.65;5.93;;;16.00;99.90;;;15.83;100.00;96690.59;5009043;28;20097;-36
2023/08/27 04:22:27;;;;;;;7.60;5.72;;;16.00;99.90;;;15.82;100.00;96689.72;5005664;28;20052;-36
2023/08/27 04:24:55;;;;;;;7.75;5.65;;;16.00;99.90;;;15.78;100.00;96682.09;5007424;28;20029;-37
2023/08/27 04:27:20;;;;;;;9.27;5.43;;;16.10;99.90;;;15.83;100.00;96679.97;5003168;28;20040;-36
2023/08/27 04:29:46;;;;;;;12.00;5.53;;;16.10;99.90;;;15.86;100.00;96685.06;5003551;28;20021;-36
2023/08/27 04:32:12;;;;;;;6.22;5.35;;;16.10;99.90;;;15.87;100.00;96669.97;5003647;28;20153;-37
2023/08/27 04:34:38;;;;;;;6.68;5.50;;;16.10;99.90;;;15.86;100.00;96647.00;5007252;28;20182;-36
2023/08/27 04:37:03;;;;;;;7.25;5.40;;;16.10;99.90;;;15.87;100.00;96627.44;4998436;28;20039;-36
2023/08/27 04:39:30;;;;;;;6.10;5.28;;;16.10;99.90;;;15.87;100.00;96617.63;5010144;28;20084;-36
2023/08/27 04:41:57;;;;;;;7.13;6.28;;;16.10;99.90;;;15.86;100.00;96628.38;5002291;28;20033;-36
2023/08/27 04:44:23;;;;;;;10.68;7.47;;;16.10;99.90;;;15.76;100.00;96615.75;5006914;28;20030;-36
2023/08/27 04:46:49;;;;;;;10.48;6.18;;;16.00;99.90;;;15.80;100.00;96634.97;5003347;28;20080;-36
2023/08/27 04:49:14;;;;;;;6.13;5.13;;;16.10;99.90;;;15.79;100.00;96633.25;5009039;28;20037;-36
2023/08/27 04:51:40;;;;;;;8.25;5.90;;;16.00;99.90;;;15.78;100.00;96636.91;5002111;28;20029;-36
2023/08/27 04:54:06;;;;;;;8.18;5.53;;;16.00;99.90;;;15.76;100.00;96652.09;5005193;28;20560;-37
2023/08/27 04:56:32;;;;;;;7.85;5.90;;;16.00;99.90;;;15.75;100.00;96655.72;5003228;28;20030;-37
2023/08/27 04:58:57;;;;;;;7.07;5.32;;;15.90;99.90;;;15.77;100.00;96646.69;5002546;28;20029;-36
2023/08/27 05:01:23;;;;;;;6.43;4.78;;;16.00;99.90;;;15.76;100.00;96652.94;5009039;28;20072;-36
2023/08/27 05:03:49;;;;;;;7.07;5.60;;;16.00;99.90;;;15.76;100.00;96668.91;5005076;28;20033;-36
2023/08/27 05:06:15;;;;;;;7.30;4.75;;;16.00;99.90;;;15.79;100.00;96674.00;5009663;28;20465;-37
2023/08/27 05:08:42;;;;;;;7.55;4.43;;;16.10;99.90;;;15.80;100.00;96665.06;5010761;28;20044;-36
2023/08/27 05:11:08;;;;;;;7.18;5.30;;;16.00;99.90;;;15.78;100.00;96669.66;5007491;28;20075;-37
2023/08/27 05:13:34;;;;;;;7.03;4.63;;;16.00;99.90;;;15.79;100.00;96676.69;5006469;28;20029;-37
2023/08/27 05:15:59;;;;;;;7.22;4.50;;;16.00;99.90;;;15.78;100.00;96672.31;5004042;28;20041;-36
2023/08/27 05:18:25;;;;;;;7.15;4.95;;;16.10;99.90;;;15.81;100.00;96663.28;5002393;28;20278;-36
2023/08/27 05:20:51;;;;;;;7.10;5.45;;;16.00;99.90;;;15.82;100.00;96687.06;5002105;28;20057;-36
2023/08/27 05:23:17;;;;;;;6.05;4.93;;;16.00;99.90;;;15.81;100.00;96690.72;5002101;28;20068;-36
2023/08/27 05:25:44;;;;;;;9.25;5.00;;;16.00;99.90;;;15.80;100.00;96682.84;5004838;28;20505;-36
2023/08/27 05:28:10;;;;;;;5.47;4.43;;;16.00;99.90;;;15.79;100.00;96678.47;5002794;28;20477;-36
2023/08/27 05:30:36;;;;;;;5.75;4.40;;;16.00;99.90;;;15.62;100.00;96656.53;5005393;28;20419;-36
2023/08/27 05:33:02;;;;;;;5.22;3.90;;;16.00;99.90;;;15.72;100.00;96672.72;5004176;28;20065;-36
2023/08/27 05:35:28;;;;;;;6.57;5.05;;;16.00;99.90;;;15.76;100.00;96679.53;5004693;28;20037;-36
2023/08/27 05:37:53;;;;;;;7.88;4.50;;;16.00;99.90;;;15.77;100.00;96691.00;5002484;28;20083;-36
2023/08/27 05:40:19;;;;;;;4.13;3.72;;;16.00;99.90;;;15.78;100.00;96685.59;5008276;28;20034;-36
2023/08/27 05:42:45;;;;;;;3.90;3.50;;;16.00;99.90;;;15.81;100.00;96688.03;4990063;28;20378;-36
2023/08/27 05:45:11;;;;;;;4.45;3.90;;;16.00;99.90;;;15.84;100.00;96682.53;5010165;28;20025;-37
2023/08/27 05:47:36;;;;;;;5.80;3.97;;;16.10;99.90;;;15.90;100.00;96685.69;5011107;28;20326;-36
2023/08/27 05:50:02;;;;;;;4.35;3.58;;;16.10;99.90;;;15.92;100.00;96683.81;5010195;28;20033;-36
2023/08/27 05:52:28;;;;;;;4.38;3.92;;;16.10;99.90;;;15.95;100.00;96684.44;5011852;28;20120;-36
2023/08/27 05:54:53;;;;;;;4.82;3.90;;;16.20;99.90;;;15.97;100.00;96694.94;5012021;28;20083;-36
2023/08/27 05:57:19;;;;;;;5.28;3.97;;;16.20;99.90;;;16.00;100.00;96684.94;5017389;28;20037;-36
2023/08/27 05:59:45;;;;;;;4.57;4.05;;;16.20;99.90;;;15.97;100.00;96674.53;5020447;28;20036;-36
2023/08/27 06:02:13;;;;;;;5.07;3.60;;;16.20;99.90;;;16.02;100.00;96676.84;5011996;28;20548;-36
2023/08/27 06:04:39;;;;;;;4.70;3.45;;;16.30;99.90;;;15.99;100.00;96672.63;5009935;28;20034;-37
2023/08/27 06:07:07;;;;;;;7.07;3.92;;;16.30;99.90;;;16.03;100.00;96697.19;5007881;28;20029;-37
2023/08/27 06:09:33;;;;;;;4.30;3.17;;;16.30;99.90;;;16.00;100.00;96676.13;5003453;28;20116;-37
2023/08/27 06:11:59;;;;;;;3.75;3.22;;;16.30;99.90;;;16.05;100.00;96681.97;5012000;28;20025;-37
2023/08/27 06:14:25;;;;;;;4.65;3.50;;;16.30;99.90;;;16.10;100.00;96684.31;5013309;28;20044;-37
2023/08/27 06:16:50;;;;;;;3.88;3.45;;;16.30;99.90;;;16.11;100.00;96670.88;5000098;28;20037;-37
2023/08/27 06:19:16;;;;;;;3.90;3.13;;;16.40;99.90;;;16.12;100.00;96669.09;5008046;28;20037;-37
2023/08/27 06:21:42;;;;;;;4.18;3.25;;;16.40;99.90;;;16.15;100.00;96664.41;5011650;28;20034;-37
2023/08/27 06:24:08;;;;;;;4.43;3.80;;;16.40;99.90;;;16.20;100.00;96661.41;5011990;28;20029;-37
2023/08/27 06:26:33;;;;;;;3.90;3.58;;;16.40;99.90;;;16.20;100.00;96645.44;5011015;28;20021;-37
2023/08/27 06:29:01;;;;;;;4.13;2.97;;;16.40;99.90;;;16.27;100.00;96649.38;5009272;28;20037;-37
2023/08/27 06:31:26;;;;;;;4.22;3.05;;;16.50;99.90;;;16.31;100.00;96648.19;5012776;28;20026;-36
2023/08/27 06:33:52;;;;;;;6.32;3.10;;;16.60;99.90;;;16.38;100.00;96651.25;5013656;28;20048;-36
2023/08/27 06:36:18;;;;;;;5.07;2.80;;;16.60;99.90;;;16.42;100.00;96655.41;5010948;28;20106;-36
2023/08/27 06:38:43;;;;;;;2.72;2.50;;;16.70;99.90;;;16.42;100.00;96666.06;5015101;28;20108;-36
2023/08/27 06:41:09;;;;;;;2.30;2.03;;;16.70;99.90;;;16.52;100.00;96682.19;5016006;28;20064;-36
2023/08/27 06:43:35;;;;;;;2.67;2.30;;;16.70;99.90;;;16.54;100.00;96677.59;5004396;28;20041;-36
2023/08/27 06:46:00;;;;;;;4.32;2.15;;;16.80;99.90;;;16.60;100.00;96678.03;5015383;28;20506;-37
2023/08/27 06:48:26;;;;;;;2.83;1.92;;;16.80;99.90;;;16.68;100.00;96690.75;5013947;28;20033;-38
2023/08/27 06:50:52;;;;;;;2.30;2.10;;;17.00;99.90;;;16.73;100.00;96691.28;5008257;28;20111;-35
2023/08/27 06:53:19;;;;;;;3.38;2.30;;;17.00;99.90;;;16.78;100.00;96699.78;5016958;28;20036;-36
2023/08/27 06:55:44;;;;;;;2.28;1.83;;;17.00;99.90;;;16.84;100.00;96703.84;5017036;28;20079;-37
2023/08/27 06:58:10;;;;;;;3.05;1.80;;;17.10;99.90;;;16.89;100.00;96712.34;5014562;28;20041;-36
2023/08/27 07:00:39;;;;;;;2.63;1.70;;;17.10;99.90;;;16.88;100.00;96721.28;5019383;28;20036;-37
2023/08/27 07:03:06;;;;;;;3.53;2.35;;;17.10;99.90;;;16.89;100.00;96711.50;5013272;28;20048;-37
2023/08/27 07:05:33;;;;;;;1.70;1.60;;;17.10;99.90;;;16.83;100.00;96707.44;5015862;28;20117;-37
2023/08/27 07:07:59;;;;;;;5.50;2.33;;;17.20;99.90;;;16.78;100.00;96691.78;5018719;28;20036;-39
2023/08/27 07:10:25;;;;;;;2.70;1.60;;;17.10;99.90;;;16.85;100.00;96700.22;5017110;28;20025;-38
2023/08/27 07:12:50;;;;;;;2.00;1.65;;;17.10;99.90;;;16.86;100.00;96693.91;5022096;28;20540;-36
2023/08/27 07:15:16;;;;;;;4.38;1.90;;;17.10;99.90;;;16.87;100.00;96682.31;5012741;28;20040;-37
2023/08/27 07:17:42;;;;;;;1.90;1.70;;;17.20;99.90;;;16.93;100.00;96676.53;5013867;28;20045;-36
2023/08/27 07:20:09;;;;;;;2.08;1.60;;;17.20;99.90;;;17.04;100.00;96674.88;5017774;28;20501;-39
2023/08/27 07:22:35;;;;;;;2.97;1.98;;;17.30;99.90;;;17.15;100.00;96674.94;5015696;28;20632;-38
2023/08/27 07:25:01;;;;;;;2.25;1.80;;;17.40;99.90;;;17.25;100.00;96669.78;5003880;28;20563;-38
2023/08/27 07:27:26;;;;;;;3.85;1.95;;;17.50;99.90;;;17.32;100.00;96669.19;5009937;28;20022;-37
2023/08/27 07:29:53;;;;;;;4.10;1.80;;;17.60;99.90;;;17.43;100.00;96668.38;5010361;28;20032;-39
2023/08/27 07:32:19;;;;;;;5.72;2.10;;;17.70;99.90;;;17.56;100.00;96665.59;5014003;28;20038;-40
2023/08/27 07:34:45;;;;;;;2.65;2.10;;;17.80;99.90;;;17.77;100.00;96662.25;5011343;28;20037;-39
2023/08/27 07:37:10;;;;;;;3.05;1.70;;;18.10;99.90;;;18.00;100.00;96656.00;5014427;28;20434;-39
2023/08/27 07:39:36;;;;;;;2.20;1.67;;;18.30;99.90;;;18.16;100.00;96652.97;5014710;28;20282;-38
2023/08/27 07:42:02;;;;;;;3.13;2.17;;;18.40;99.90;;;18.26;100.00;96655.75;5011045;28;20063;-39
2023/08/27 07:44:28;;;;;;;2.45;1.77;;;18.50;99.90;;;18.29;100.00;96664.34;5019903;28;20021;-40
2023/08/27 07:46:54;;;;;;;3.20;1.75;;;18.60;99.90;;;18.35;100.00;96670.19;5012853;28;20033;-37
2023/08/27 07:49:19;;;;;;;2.25;1.90;;;18.60;99.90;;;18.27;100.00;96684.16;5007078;28;20375;-38
2023/08/27 07:51:46;;;;;;;1.42;1.33;;;18.50;99.90;;;18.29;100.00;96688.38;5006060;28;20356;-37
2023/08/27 07:54:11;;;;;;;3.03;1.73;;;18.50;99.90;;;18.32;100.00;96711.28;5018135;28;20041;-39
2023/08/27 07:56:37;;;;;;;2.92;1.60;;;18.60;99.90;;;18.23;100.00;96712.91;5018043;28;20045;-37
2023/08/27 07:59:03;;;;;;;2.22;1.70;;;18.50;99.90;;;18.06;100.00;96714.19;5016098;28;20493;-38
2023/08/27 08:01:28;;;;;;;2.78;1.27;;;18.40;99.90;;;17.98;100.00;96716.63;5017611;28;20025;-38
2023/08/27 08:03:54;;;;;;;2.25;1.50;;;18.30;99.90;;;17.86;100.00;96738.91;5008758;28;20025;-39
2023/08/27 08:06:20;;;;;;;2.58;1.48;;;18.10;99.90;;;17.78;100.00;96736.78;5009834;28;20025;-37
2023/08/27 08:08:46;;;;;;;1.48;1.30;;;18.00;99.90;;;17.74;100.00;96754.00;5007279;28;20029;-39
2023/08/27 08:11:11;;;;;;;2.05;1.45;;;18.00;99.90;;;17.65;100.00;96746.69;5016058;28;20107;-38
2023/08/27 08:13:40;;;;;;;4.20;1.77;;;17.90;99.90;;;17.65;100.00;96763.53;5005962;28;20029;-39
2023/08/27 08:16:06;;;;;;;3.28;1.90;;;17.90;99.90;;;17.58;100.00;96759.63;5001777;28;20096;-38
2023/08/27 08:18:31;;;;;;;2.45;1.63;;;17.90;99.90;;;17.65;100.00;96773.38;5006267;28;20033;-38
2023/08/27 08:20:59;;;;;;;2.15;1.60;;;17.90;99.90;;;17.68;100.00;96768.66;5007151;28;20371;-37
2023/08/27 08:23:25;;;;;;;3.95;1.60;;;17.90;99.90;;;17.82;100.00;96772.06;5012140;28;20038;-38
2023/08/27 08:25:51;;;;;;;3.85;1.92;;;18.00;99.90;;;17.94;100.00;96757.84;5009930;28;20041;-39
2023/08/27 08:28:18;;;;;;;2.72;1.90;;;18.20;99.90;;;18.20;100.00;96763.84;5012948;28;20039;-38
2023/08/27 08:30:49;;;;;;;2.45;1.50;;;18.40;99.90;;;18.48;100.00;96769.66;5015151;28;20033;-36
2023/08/27 08:33:16;;;;;;;2.35;1.70;;;18.70;99.90;;;18.72;100.00;96769.56;5015086;28;20046;-37
2023/08/27 08:35:43;;;;;;;3.90;1.88;;;18.90;99.90;;;18.79;100.00;96789.44;5014816;28;20036;-37
2023/08/27 08:38:09;;;;;;;2.05;1.52;;;19.00;99.90;;;18.76;100.00;96784.34;5010829;28;20034;-37
2023/08/27 08:40:47;;;;;;;4.88;2.00;;;19.10;99.90;;;18.79;100.00;96778.78;5015025;28;20032;-38
2023/08/27 08:43:42;;;;;;;1.85;1.60;;;19.00;99.90;;;18.78;100.00;96771.72;5015606;28;20128;-36
2023/08/27 08:46:09;;;;;;;2.58;1.50;;;19.00;99.90;;;18.80;100.00;96753.75;5012013;28;20042;-37
2023/08/27 08:48:41;;;;;;;2.25;1.45;;;19.10;99.90;;;18.86;100.00;96734.59;5018351;28;20105;-37
2023/08/27 08:51:12;;;;;;;2.22;1.65;;;19.20;99.90;;;19.02;100.00;96738.66;5017493;28;20025;-36
2023/08/27 08:53:49;;;;;;;1.88;1.65;;;19.30;99.90;;;19.15;100.00;96738.50;5012649;28;20033;-37
2023/08/27 08:56:27;;;;;;;1.70;1.35;;;19.40;99.90;;;19.31;100.00;96747.00;5021774;28;20113;-37
2023/08/27 08:58:57;;;;;;;1.50;1.40;;;19.50;99.90;;;19.45;100.00;96745.81;5031577;28;20037;-37
2023/08/27 09:01:24;;;;;;;4.85;1.70;;;19.60;99.90;;;19.45;100.00;96740.47;5015697;28;20120;-37
2023/08/27 09:03:51;;;;;;;3.33;1.60;;;19.70;99.90;;;19.49;100.00;96747.28;5010971;28;20170;-37
2023/08/27 09:06:19;;;;;;;1.55;1.45;;;19.70;99.90;;;19.55;100.00;96757.47;5014275;28;20033;-37
2023/08/27 09:08:45;;;;;;;2.92;1.42;;;19.70;99.90;;;19.36;100.00;96750.13;5015345;28;20740;-37
2023/08/27 09:11:13;;;;;;;1.65;1.42;;;19.70;99.90;;;19.25;100.00;96755.50;5013322;28;20038;-37
2023/08/27 09:13:39;;;;;;;2.55;1.60;;;19.50;99.90;;;19.16;100.00;96749.09;5013078;28;20077;-37
2023/08/27 09:16:08;;;;;;;2.33;1.60;;;19.40;99.90;;;19.13;100.00;96760.03;5014436;28;20092;-37
2023/08/27 09:18:35;;;;;;;1.70;1.13;;;19.30;99.90;;;19.13;100.00;96746.69;5016047;28;20040;-39
2023/08/27 09:21:01;;;;;;;2.85;1.55;;;19.30;99.90;;;19.18;100.00;96752.47;5022626;28;20048;-38
2023/08/27 09:23:29;;;;;;;3.70;1.48;;;19.40;99.90;;;19.30;100.00;96753.31;5015963;28;20116;-38
2023/08/27 09:26:05;;;;;;;2.95;1.35;;;19.50;99.90;;;19.48;100.00;96748.25;5002626;28;20044;-37
2023/08/27 09:28:33;;;;;;;1.15;1.05;;;19.60;99.90;;;19.74;100.00;96734.53;5022905;28;20025;-39
2023/08/27 09:31:01;;;;;;;2.30;1.30;;;19.90;99.90;;;20.06;100.00;96722.91;5017675;28;20532;-37
2023/08/27 09:33:41;;;;;;;1.50;1.40;;;20.30;99.90;;;19.89;100.00;96725.22;5019784;28;20064;-38
2023/08/27 09:36:09;;;;;;;2.70;1.40;;;20.30;99.90;;;20.10;100.00;96719.84;5016890;28;20037;-37
2023/08/27 09:38:35;;;;;;;3.60;1.70;;;20.50;99.90;;;20.03;100.00;96724.88;5017779;28;20122;-37
2023/08/27 09:41:17;;;;;;;3.17;1.45;;;20.60;99.90;;;20.44;100.00;96726.75;5016493;28;20033;-38
2023/08/27 09:43:53;;;;;;;4.47;1.58;;;20.80;99.90;;;20.53;100.00;96729.50;5006588;28;20029;-39
2023/08/27 09:46:20;;;;;;;3.22;1.50;;;20.90;99.90;;;20.60;100.00;96727.09;5023506;28;20034;-39
2023/08/27 09:49:04;;;;;;;2.83;1.50;;;20.90;99.90;;;20.50;100.00;96728.91;5013711;28;20476;-40
2023/08/27 09:51:32;;;;;;;3.03;1.45;;;20.90;99.90;;;20.64;100.00;96725.03;5015286;28;20043;-39
2023/08/27 09:53:58;;;;;;;1.95;1.15;;;20.90;99.90;;;20.83;100.00;96718.91;5006387;28;20307;-39
2023/08/27 09:56:27;;;;;;;3.78;1.48;;;21.10;99.90;;;21.05;100.00;96721.34;5003559;28;20401;-41
2023/08/27 09:58:54;;;;;;;2.15;1.45;;;21.20;99.90;;;21.10;100.00;96724.47;5003652;28;20067;-41
2023/08/27 10:01:23;;;;;;;1.48;1.30;;;21.30;99.90;;;21.11;100.00;96726.16;5013608;28;20038;-38
2023/08/27 10:03:49;;;;;;;1.73;1.48;;;21.30;99.90;;;21.00;100.00;96733.44;5010814;28;20037;-40
2023/08/27 10:06:14;;;;;;;2.22;1.33;;;21.30;99.90;;;20.97;100.00;96726.53;5009278;28;20369;-37
2023/08/27 10:08:51;;;;;;;2.72;1.60;;;21.20;99.90;;;21.00;100.00;96728.09;5014818;28;20078;-40
2023/08/27 10:11:17;;;;;;;3.75;1.33;;;21.20;99.90;;;20.98;100.00;96720.22;5009709;28;20495;-40